Time;durP1;ratioP1;P1;durP2;ratioP2;P2;SDS_P1;SDS_P2;PMS_P1;PMS_P2;Temp;Humidity;BMP_temperature;BMP_pressure;BME280_temperature;BME280_humidity;BME280_pressure;Samples;Min_cycle;Max_cycle;Signal;HPM_P1;HPM_P2
2023/09/22 00:02:00;;;;;;;0.05;0.05;;;;;;;16.56;100.00;98962.53;4929220;28;20047;-91
2023/09/22 00:04:26;;;;;;;8.43;2.13;;;;;;;16.40;100.00;98944.41;4933744;29;20059;-91
2023/09/22 00:06:51;;;;;;;0.30;0.30;;;;;;;16.53;100.00;98958.72;4950740;28;20049;-91
2023/09/22 00:09:17;;;;;;;0.35;0.32;;;;;;;16.58;100.00;98976.81;4926950;29;20035;-92
2023/09/22 00:11:42;;;;;;;0.40;0.40;;;;;;;16.50;100.00;98961.75;4939979;29;20078;-91
2023/09/22 00:14:08;;;;;;;0.28;0.28;;;;;;;16.56;100.00;98973.72;4931219;28;20050;-91
2023/09/22 00:16:34;;;;;;;0.13;0.13;;;;;;;16.52;100.00;98967.59;4918699;28;20471;-91
2023/09/22 00:19:04;;;;;;;0.55;0.30;;;;;;;16.58;100.00;98971.97;4937004;28;20057;-91
2023/09/22 00:21:31;;;;;;;0.30;0.30;;;;;;;16.64;100.00;98969.97;4932376;29;20047;-91
2023/09/22 00:23:56;;;;;;;6.55;0.70;;;;;;;16.58;100.00;98966.38;4942575;29;20075;-91
2023/09/22 00:26:22;;;;;;;0.57;0.55;;;;;;;16.57;100.00;98970.47;4934717;29;20073;-91
2023/09/22 00:28:48;;;;;;;0.10;0.10;;;;;;;16.64;100.00;98986.00;4932963;28;20046;-91
2023/09/22 00:31:13;;;;;;;1.95;0.70;;;;;;;16.58;100.00;98974.03;4952404;28;20038;-92
2023/09/22 00:33:39;;;;;;;0.00;0.00;;;;;;;16.47;100.00;98971.91;4933698;28;20414;-91
2023/09/22 00:36:05;;;;;;;2.83;0.55;;;;;;;16.61;100.00;98981.41;4919789;28;20051;-92
2023/09/22 00:38:30;;;;;;;0.55;0.20;;;;;;;16.54;100.00;98970.69;4927049;29;20050;-91
2023/09/22 00:40:56;;;;;;;0.82;0.82;;;;;;;16.58;100.00;98974.03;4929857;28;20039;-91
2023/09/22 00:43:21;;;;;;;0.80;0.65;;;;;;;16.57;100.00;98969.69;4931064;28;20035;-92
2023/09/22 00:45:52;;;;;;;0.47;0.47;;;;;;;16.45;100.00;98951.28;4931826;28;20134;-91
2023/09/22 00:48:27;;;;;;;0.10;0.10;;;;;;;16.56;100.00;98966.09;4924309;28;20686;-91
2023/09/22 00:50:55;;;;;;;0.22;0.15;;;;;;;16.60;100.00;98980.66;4934137;29;20051;-91
2023/09/22 00:53:25;;;;;;;3.03;0.60;;;;;;;16.56;100.00;98957.69;4920516;28;20034;-91
2023/09/22 00:55:51;;;;;;;0.00;0.00;;;;;;;16.56;100.00;98962.53;4921088;28;20079;-90
2023/09/22 00:58:21;;;;;;;0.70;0.08;;;;;;;16.61;100.00;98982.19;4947462;28;20053;-91
2023/09/22 01:00:48;;;;;;;2.22;1.05;;;;;;;16.52;100.00;98979.56;4933545;29;20566;-90
2023/09/22 01:03:14;;;;;;;0.80;0.52;;;;;;;16.55;100.00;98981.34;4941659;28;20039;-91
2023/09/22 01:05:40;;;;;;;1.55;1.35;;;;;;;16.51;100.00;98975.22;4935635;28;20046;-91
2023/09/22 01:08:05;;;;;;;0.77;0.57;;;;;;;16.48;100.00;98984.63;4924854;28;20106;-90
2023/09/22 01:10:38;;;;;;;0.10;0.10;;;;;;;16.47;100.00;98963.50;4935019;28;20415;-90
2023/09/22 01:13:05;;;;;;;0.38;0.38;;;;;;;16.46;100.00;98975.22;4918012;29;20050;-91
2023/09/22 01:15:35;;;;;;;0.22;0.22;;;;;;;16.31;100.00;98950.97;4940330;29;20046;-91
2023/09/22 01:18:01;;;;;;;0.10;0.10;;;;;;;16.38;100.00;98966.50;4916058;28;20039;-90
2023/09/22 01:20:27;;;;;;;0.32;0.32;;;;;;;16.42;100.00;98972.63;4932360;29;20043;-90
2023/09/22 01:22:53;;;;;;;0.73;0.73;;;;;;;16.44;100.00;98972.16;4918401;28;20070;-90
2023/09/22 01:25:18;;;;;;;0.38;0.38;;;;;;;16.38;100.00;98969.31;4936075;28;20384;-90
2023/09/22 01:27:44;;;;;;;0.52;0.40;;;;;;;16.33;100.00;98961.69;4945766;29;20053;-90
2023/09/22 01:30:10;;;;;;;0.47;0.47;;;;;;;16.34;100.00;98963.19;4927927;28;20043;-90
2023/09/22 01:32:39;;;;;;;0.63;0.63;;;;;;;16.08;100.00;98931.78;4927989;28;20513;-90
2023/09/22 01:35:07;;;;;;;0.40;0.40;;;;;;;16.20;100.00;98952.97;4923831;29;20294;-90
2023/09/22 01:37:36;;;;;;;0.25;0.25;;;;;;;16.25;100.00;98969.03;4930411;28;20058;-90
2023/09/22 01:40:02;;;;;;;0.50;0.50;;;;;;;16.27;100.00;98969.28;4911600;29;20043;-90
2023/09/22 01:42:27;;;;;;;0.20;0.20;;;;;;;16.23;100.00;98965.94;4931730;28;20058;-90
2023/09/22 01:44:53;;;;;;;0.45;0.45;;;;;;;16.30;100.00;98979.44;4923870;28;20034;-91
2023/09/22 01:47:18;;;;;;;0.73;0.65;;;;;;;16.30;100.00;98982.25;4963840;28;20032;-89
2023/09/22 01:49:47;;;;;;;1.17;0.40;;;;;;;16.12;100.00;98951.91;4930460;28;20047;-90
2023/09/22 01:52:12;;;;;;;0.75;0.55;;;;;;;16.28;100.00;98979.22;4928439;29;20046;-90
2023/09/22 01:54:38;;;;;;;0.20;0.20;;;;;;;16.22;100.00;98965.19;4933313;29;20142;-90
2023/09/22 01:57:04;;;;;;;0.47;0.38;;;;;;;16.09;100.00;98945.28;4950414;28;20055;-90
2023/09/22 01:59:29;;;;;;;0.08;0.08;;;;;;;16.19;100.00;98962.63;4927216;28;20051;-90
2023/09/22 02:01:55;;;;;;;0.15;0.15;;;;;;;16.13;100.00;98959.03;4926721;28;20043;-90
2023/09/22 02:04:20;;;;;;;2.78;1.27;;;;;;;16.15;100.00;98962.09;4936503;29;20134;-90
2023/09/22 02:06:46;;;;;;;0.00;0.00;;;;;;;16.09;100.00;98959.28;4923032;28;20085;-90
2023/09/22 02:09:11;;;;;;;0.50;0.50;;;;;;;16.14;100.00;98974.53;4926091;29;20439;-90
2023/09/22 02:11:40;;;;;;;0.20;0.20;;;;;;;16.05;100.00;98963.56;4937121;28;20046;-90
2023/09/22 02:14:07;;;;;;;1.17;1.08;;;;;;;16.10;100.00;98960.03;4938762;28;20061;-90
2023/09/22 02:16:32;;;;;;;1.05;0.95;;;;;;;15.91;100.00;98923.31;4939520;28;20051;-90
2023/09/22 02:18:59;;;;;;;0.22;0.22;;;;;;;16.03;100.00;98935.31;4938573;28;20038;-90
2023/09/22 02:21:25;;;;;;;0.30;0.20;;;;;;;16.07;100.00;98939.41;4956295;28;20491;-90
2023/09/22 02:23:50;;;;;;;0.38;0.38;;;;;;;16.05;100.00;98932.81;4944060;28;20046;-90
2023/09/22 02:26:16;;;;;;;1.90;1.45;;;;;;;16.08;100.00;98937.38;4951635;28;20046;-91
2023/09/22 02:28:41;;;;;;;0.70;0.55;;;;;;;15.97;100.00;98917.75;4937151;28;20039;-91
2023/09/22 02:31:07;;;;;;;1.77;0.55;;;;;;;15.82;100.00;98907.50;4927928;29;20031;-90
2023/09/22 02:33:33;;;;;;;1.45;0.93;;;;;;;15.98;100.00;98925.63;4948372;28;20071;-92
2023/09/22 02:35:59;;;;;;;0.17;0.17;;;;;;;16.03;100.00;98926.94;4946678;28;20099;-90
2023/09/22 02:38:26;;;;;;;0.10;0.10;;;;;;;15.99;100.00;98926.41;4947892;28;20086;-90
2023/09/22 02:40:51;;;;;;;0.60;0.55;;;;;;;15.80;100.00;98904.47;4941622;29;20031;-90
2023/09/22 02:43:17;;;;;;;2.72;1.17;;;;;;;15.84;100.00;98910.59;4941160;28;20419;-90
2023/09/22 02:45:42;;;;;;;0.55;0.55;;;;;;;15.82;100.00;98907.50;4930677;29;20507;-91
2023/09/22 02:48:08;;;;;;;1.20;1.10;;;;;;;15.86;100.00;98910.06;4925234;28;20043;-90
2023/09/22 02:50:37;;;;;;;0.38;0.38;;;;;;;15.97;100.00;98917.75;4944130;29;20066;-90
2023/09/22 02:53:04;;;;;;;0.00;0.00;;;;;;;16.01;100.00;98913.47;4945507;29;20046;-90
2023/09/22 02:55:30;;;;;;;0.68;0.68;;;;;;;16.02;100.00;98903.03;4937056;29;20058;-90
2023/09/22 02:57:56;;;;;;;0.30;0.30;;;;;;;15.86;100.00;98885.66;4920072;29;20055;-90
2023/09/22 03:00:22;;;;;;;1.50;1.15;;;;;;;16.06;100.00;98903.53;4932629;28;20105;-90
2023/09/22 03:02:48;;;;;;;1.08;0.98;;;;;;;16.08;100.00;98907.38;4939932;28;20407;-91
2023/09/22 03:05:16;;;;;;;1.08;0.40;;;;;;;16.09;100.00;98908.16;4932948;28;20475;-90
2023/09/22 03:07:43;;;;;;;0.50;0.50;;;;;;;16.18;100.00;98900.31;4952370;29;20039;-90
2023/09/22 03:10:10;;;;;;;0.63;0.63;;;;;;;16.12;100.00;98902.31;4923229;28;20510;-91
2023/09/22 03:12:40;;;;;;;0.30;0.30;;;;;;;16.11;100.00;98886.03;4940168;28;20505;-90
2023/09/22 03:15:09;;;;;;;0.15;0.15;;;;;;;16.14;100.00;98890.63;4935359;28;20118;-91
2023/09/22 03:17:36;;;;;;;1.52;1.25;;;;;;;16.17;100.00;98886.84;4945155;29;20294;-90
2023/09/22 03:20:12;;;;;;;4.57;1.60;;;;;;;16.28;100.00;98906.44;4951904;28;20380;-90
2023/09/22 03:22:38;;;;;;;0.47;0.30;;;;;;;16.26;100.00;98906.19;4947047;28;20518;-90
2023/09/22 03:25:05;;;;;;;0.52;0.25;;;;;;;16.31;100.00;98911.03;4912292;28;20035;-91
2023/09/22 03:27:34;;;;;;;1.05;0.77;;;;;;;16.27;100.00;98900.09;4923384;28;20105;-91
2023/09/22 03:30:01;;;;;;;0.68;0.57;;;;;;;16.38;100.00;98909.81;4915243;29;20456;-91
2023/09/22 03:32:27;;;;;;;1.00;0.70;;;;;;;16.32;100.00;98899.34;4919217;28;20088;-91
2023/09/22 03:34:54;;;;;;;0.75;0.75;;;;;;;16.26;100.00;98892.19;4939436;28;20044;-90
2023/09/22 03:37:20;;;;;;;3.10;1.45;;;;;;;16.28;100.00;98892.47;4914718;29;20055;-90
2023/09/22 03:39:45;;;;;;;0.35;0.35;;;;;;;16.37;100.00;98916.66;4924931;29;20415;-90
2023/09/22 03:42:13;;;;;;;2.58;1.30;;;;;;;16.27;100.00;98896.53;4918269;28;20486;-91
2023/09/22 03:44:40;;;;;;;0.32;0.25;;;;;;;16.34;100.00;98902.41;4909622;28;20047;-91
2023/09/22 03:47:06;;;;;;;0.20;0.20;;;;;;;16.41;100.00;98901.16;4947276;28;20514;-91
2023/09/22 03:49:32;;;;;;;1.85;1.58;;;;;;;16.45;100.00;98907.28;4938663;29;20035;-91
2023/09/22 03:51:57;;;;;;;3.50;1.25;;;;;;;16.47;100.00;98915.94;4913016;28;20077;-91
2023/09/22 03:54:23;;;;;;;0.43;0.43;;;;;;;16.49;100.00;98909.84;4909892;28;20251;-92
2023/09/22 03:56:48;;;;;;;0.43;0.43;;;;;;;16.51;100.00;98910.84;4933786;28;20444;-92
2023/09/22 03:59:14;;;;;;;0.60;0.57;;;;;;;16.62;100.00;98924.91;4940227;29;20091;-92
2023/09/22 04:01:39;;;;;;;0.10;0.10;;;;;;;16.70;100.00;98911.94;4920978;28;20043;-91
2023/09/22 04:04:05;;;;;;;2.78;0.52;;;;;;;16.68;100.00;98916.53;4945822;28;20046;-90
2023/09/22 04:06:31;;;;;;;1.67;1.45;;;;;;;16.73;100.00;98922.16;4923264;28;20046;-89
2023/09/22 04:08:58;;;;;;;0.60;0.60;;;;;;;16.78;100.00;98921.38;4928331;28;20554;-91
2023/09/22 04:11:23;;;;;;;1.50;1.40;;;;;;;16.70;100.00;98909.13;4931891;28;20045;-90
2023/09/22 04:13:49;;;;;;;1.35;0.88;;;;;;;16.81;100.00;98918.84;4950048;28;20047;-89
2023/09/22 04:16:14;;;;;;;1.20;0.98;;;;;;;16.64;100.00;98897.19;4934547;28;20071;-90
2023/09/22 04:18:40;;;;;;;0.43;0.43;;;;;;;16.87;100.00;98930.81;4936438;28;20054;-89
2023/09/22 04:21:08;;;;;;;0.43;0.43;;;;;;;16.87;100.00;98916.81;4914099;28;20474;-90
2023/09/22 04:23:34;;;;;;;0.68;0.60;;;;;;;16.83;100.00;98913.50;4931561;28;20049;-92
2023/09/22 04:26:05;;;;;;;1.38;0.70;;;;;;;16.92;100.00;98933.63;4910208;28;20039;-91
2023/09/22 04:28:31;;;;;;;0.40;0.38;;;;;;;16.89;100.00;98933.88;4958936;28;20047;-91
2023/09/22 04:31:00;;;;;;;0.50;0.50;;;;;;;16.73;100.00;98910.94;4933211;28;20034;-91
2023/09/22 04:33:26;;;;;;;0.47;0.47;;;;;;;16.61;100.00;98898.19;4931457;28;20055;-89
2023/09/22 04:35:52;;;;;;;1.95;1.75;;;;;;;16.88;100.00;98943.53;4935074;28;20043;-91
2023/09/22 04:38:18;;;;;;;0.45;0.45;;;;;;;16.91;100.00;98948.13;4946011;28;20109;-90
2023/09/22 04:51:19;;;;;;;0.40;0.40;;;;;;;16.84;100.00;98959.84;5089303;27;20474;-92
2023/09/22 04:53:45;;;;;;;0.95;0.95;;;;;;;16.76;100.00;98957.53;5022047;28;20035;-91
2023/09/22 04:56:10;;;;;;;0.60;0.60;;;;;;;16.65;100.00;98946.31;5029784;28;20024;-91
2023/09/22 04:58:39;;;;;;;9.23;1.23;;;;;;;16.82;100.00;98979.19;5043004;28;20877;-89
2023/09/22 05:01:05;;;;;;;0.82;0.82;;;;;;;16.76;100.00;98965.94;5027604;28;20610;-90
2023/09/22 05:03:31;;;;;;;0.82;0.65;;;;;;;16.73;100.00;98966.94;5023367;28;20143;-90
2023/09/22 05:06:09;;;;;;;0.50;0.50;;;;;;;16.84;100.00;98982.25;5030657;28;20586;-90
2023/09/22 05:08:37;;;;;;;0.98;0.90;;;;;;;16.88;100.00;98979.97;5057896;28;20027;-90
2023/09/22 05:11:05;;;;;;;0.30;0.28;;;;;;;16.85;100.00;98969.78;5048312;28;20127;-92
2023/09/22 05:13:31;;;;;;;0.95;0.95;;;;;;;16.82;100.00;98976.38;5042522;28;20433;-91
2023/09/22 05:16:10;;;;;;;0.60;0.60;;;;;;;16.84;100.00;98987.84;5042432;28;20109;-90
2023/09/22 05:18:36;;;;;;;0.22;0.22;;;;;;;16.81;100.00;98981.22;5043278;28;20037;-90
2023/09/22 05:21:02;;;;;;;0.43;0.43;;;;;;;16.86;100.00;98971.31;5060900;28;20433;-91
2023/09/22 05:23:29;;;;;;;2.53;1.20;;;;;;;16.79;100.00;98976.13;5038236;28;20040;-91
2023/09/22 05:25:55;;;;;;;0.40;0.40;;;;;;;16.76;100.00;98970.75;5042042;28;20102;-90
2023/09/22 05:28:21;;;;;;;0.20;0.20;;;;;;;16.83;100.00;98989.09;5042572;28;20292;-92
2023/09/22 05:30:46;;;;;;;1.63;0.52;;;;;;;16.85;100.00;98990.16;5072168;28;20056;-90
2023/09/22 05:33:12;;;;;;;0.80;0.30;;;;;;;16.86;100.00;98991.69;5045621;28;20498;-90
2023/09/22 05:35:37;;;;;;;1.17;1.05;;;;;;;16.84;100.00;98991.41;5045056;28;20033;-90
2023/09/22 05:38:04;;;;;;;0.63;0.63;;;;;;;16.89;100.00;98992.69;5043688;28;20036;-90
2023/09/22 05:40:32;;;;;;;0.35;0.35;;;;;;;16.94;100.00;98998.31;5045295;28;20047;-90
2023/09/22 05:42:58;;;;;;;1.83;0.57;;;;;;;16.84;100.00;98983.00;5045271;28;20475;-90
2023/09/22 05:45:23;;;;;;;0.40;0.30;;;;;;;16.84;100.00;98971.81;5042383;28;20657;-90
2023/09/22 05:47:49;;;;;;;0.60;0.60;;;;;;;16.93;100.00;98990.41;5062897;28;20150;-91
2023/09/22 05:50:14;;;;;;;0.17;0.17;;;;;;;16.96;100.00;98995.78;5073867;28;20063;-91
2023/09/22 05:52:40;;;;;;;0.68;0.68;;;;;;;16.85;100.00;98975.38;5045264;28;20511;-89
2023/09/22 05:55:06;;;;;;;2.20;0.82;;;;;;;16.97;100.00;98985.34;5031415;28;20028;-90
2023/09/22 05:57:34;;;;;;;0.60;0.60;;;;;;;17.15;100.00;98996.81;5048670;28;20032;-89
2023/09/22 05:59:59;;;;;;;0.20;0.20;;;;;;;17.28;100.00;98993.53;5042377;28;20097;-90
2023/09/22 06:02:25;;;;;;;0.47;0.47;;;;;;;17.42;100.00;98998.16;5049267;28;20060;-89
2023/09/22 06:04:55;;;;;;;0.52;0.32;;;;;;;17.51;100.00;98980.31;5040501;28;20040;-90
2023/09/22 06:07:22;;;;;;;2.67;1.55;;;;;;;17.63;100.00;98977.00;5055765;28;20040;-90
2023/09/22 06:09:48;;;;;;;0.85;0.80;;;;;;;17.82;100.00;99005.31;5031940;28;20040;-90
2023/09/22 06:12:13;;;;;;;0.28;0.28;;;;;;;17.78;100.00;99006.84;5036164;28;20024;-89
2023/09/22 06:14:39;;;;;;;1.05;0.75;;;;;;;17.80;100.00;99004.25;5045495;28;20518;-90
2023/09/22 06:17:05;;;;;;;5.40;1.10;;;;;;;17.88;100.00;99000.44;5058001;28;20029;-90
2023/09/22 06:19:31;;;;;;;1.40;0.68;;;;;;;18.07;100.00;99021.09;5025325;28;20036;-91
2023/09/22 06:21:57;;;;;;;1.48;1.17;;;;;;;18.24;100.00;99009.81;5040689;28;20044;-90
2023/09/22 06:24:23;;;;;;;0.40;0.40;;;;;;;18.25;100.00;99002.91;5048136;28;20020;-91
2023/09/22 06:26:49;;;;;;;0.73;0.73;;;;;;;18.46;100.00;99015.38;5047750;28;20487;-91
2023/09/22 06:29:15;;;;;;;0.00;0.00;;;;;;;18.62;100.00;99022.22;5029208;28;20028;-90
2023/09/22 06:31:41;;;;;;;0.43;0.43;;;;;;;18.80;100.00;99018.09;5042602;28;20053;-91
2023/09/22 06:34:07;;;;;;;0.70;0.70;;;;;;;19.04;100.00;99012.59;5034427;28;20028;-90
2023/09/22 06:36:33;;;;;;;2.90;1.05;;;;;;;19.17;100.00;99007.13;5045168;28;20478;-90
2023/09/22 06:39:02;;;;;;;1.55;1.45;;;;;;;19.29;100.00;99005.78;5045879;28;20040;-91
2023/09/22 06:41:28;;;;;;;0.60;0.32;;;;;;;19.33;100.00;99002.69;5062424;28;20123;-90
2023/09/22 06:43:53;;;;;;;1.45;0.90;;;;;;;19.38;100.00;99011.09;5058470;28;20560;-91
2023/09/22 06:46:19;;;;;;;0.32;0.32;;;;;;;19.48;100.00;99023.59;5027700;28;20035;-91
2023/09/22 06:48:45;;;;;;;1.05;0.75;;;;;;;19.44;100.00;99016.72;5045001;28;20041;-91
2023/09/22 06:51:18;;;;;;;0.32;0.32;;;;;;;19.43;100.00;99032.81;5036539;28;20052;-92
2023/09/22 06:53:44;;;;;;;1.85;1.55;;;;;;;19.49;100.00;99038.41;5035268;28;20048;-91
2023/09/22 06:56:10;;;;;;;4.63;1.70;;;;;;;19.54;100.00;99038.34;5034127;28;20036;-93
2023/09/22 06:58:37;;;;;;;0.90;0.85;;;;;;;19.59;100.00;99044.47;5031264;28;20040;-91
2023/09/22 07:01:14;;;;;;;0.25;0.25;;;;;;;19.55;100.00;99034.25;5048121;28;20636;-91
2023/09/22 07:04:08;;;;;;;0.45;0.45;;;;;;;19.30;100.00;98996.06;5034434;28;20117;-92
2023/09/22 07:06:37;;;;;;;1.45;1.33;;;;;;;19.40;100.00;99014.16;5032426;28;20020;-91
2023/09/22 07:09:13;;;;;;;0.80;0.73;;;;;;;19.61;100.00;99053.91;5041910;28;20093;-91
2023/09/22 07:11:42;;;;;;;0.55;0.52;;;;;;;19.65;100.00;99043.16;5043478;28;20029;-91
2023/09/22 07:14:08;;;;;;;0.65;0.65;;;;;;;19.67;100.00;99042.59;5044446;28;20427;-91
2023/09/22 07:16:33;;;;;;;2.13;1.10;;;;;;;19.82;100.00;99057.06;5048630;28;20025;-91
2023/09/22 07:19:02;;;;;;;0.43;0.43;;;;;;;19.94;100.00;99061.31;5042199;28;20404;-91
2023/09/22 07:21:27;;;;;;;0.95;0.95;;;;;;;20.06;100.00;99048.66;5027562;28;20036;-92
2023/09/22 07:23:58;;;;;;;2.10;0.95;;;;;;;20.33;100.00;99050.50;5049871;28;20041;-92
2023/09/22 07:26:23;;;;;;;1.25;1.15;;;;;;;20.77;100.00;99066.13;5037118;28;20488;-91
2023/09/22 07:28:49;;;;;;;0.68;0.68;;;;;;;21.13;100.00;99065.97;5062440;28;20032;-92
2023/09/22 07:31:18;;;;;;;4.40;2.05;;;;;;;21.44;100.00;99072.97;5044886;28;20029;-91
2023/09/22 07:33:43;;;;;;;1.20;1.08;;;;;;;21.69;100.00;99075.16;5031050;28;20493;-92
2023/09/22 07:36:09;;;;;;;0.52;0.52;;;;;;;22.05;100.00;99086.91;5030510;28;20111;-91
2023/09/22 07:38:36;;;;;;;1.10;1.05;;;;;;;22.14;100.00;99052.63;5043389;28;20039;-94
2023/09/22 07:41:02;;;;;;;3.60;1.98;;;;;;;22.55;100.00;99090.94;5045607;28;20667;-95
2023/09/22 07:43:31;;;;;;;1.90;1.02;;;;;;;22.73;100.00;99078.78;5028444;28;20021;-95
2023/09/22 07:45:57;;;;;;;0.55;0.55;;;;;;;22.98;100.00;99071.59;5042464;28;20049;-94
2023/09/22 07:48:23;;;;;;;1.05;1.00;;;;;;;22.76;100.00;99078.47;5042396;28;20024;-95
2023/09/22 07:50:48;;;;;;;0.95;0.95;;;;;;;22.65;100.00;99086.34;5042021;28;20488;-93
2023/09/22 07:53:14;;;;;;;0.30;0.30;;;;;;;22.61;100.00;99088.75;5032900;28;20507;-94
2023/09/22 07:55:41;;;;;;;7.82;2.53;;;;;;;22.69;100.00;99089.66;5055452;28;20044;-93
2023/09/22 07:58:06;;;;;;;0.57;0.55;;;;;;;22.55;100.00;99079.63;5025760;28;20029;-92
2023/09/22 08:00:33;;;;;;;0.70;0.70;;;;;;;22.53;100.00;99076.56;5040967;28;20044;-93
2023/09/22 08:03:08;;;;;;;0.10;0.10;;;;;;;22.35;100.00;99049.19;5026686;28;20512;-94
2023/09/22 08:05:34;;;;;;;0.10;0.10;;;;;;;22.39;100.00;99066.56;5046782;28;20029;-92
2023/09/22 08:08:05;;;;;;;0.52;0.52;;;;;;;22.28;100.00;99051.31;5052063;28;20497;-95
2023/09/22 08:10:35;;;;;;;0.80;0.70;;;;;;;22.20;100.00;99038.41;5051373;28;20044;-95
2023/09/22 08:13:03;;;;;;;1.60;0.88;;;;;;;22.45;100.00;99084.16;5083704;28;20041;-96
2023/09/22 08:15:30;;;;;;;0.55;0.55;;;;;;;22.33;100.00;99047.66;5049228;28;20513;-95
2023/09/22 08:17:57;;;;;;;1.45;0.63;;;;;;;22.23;100.00;99040.91;5064349;28;20041;-92
2023/09/22 08:20:22;;;;;;;3.80;1.85;;;;;;;22.38;100.00;99070.69;5060824;28;20044;-93
2023/09/22 08:22:48;;;;;;;0.95;0.95;;;;;;;22.18;100.00;99055.13;5046787;28;20397;-93
2023/09/22 08:25:16;;;;;;;1.08;0.90;;;;;;;22.25;100.00;99060.88;5057538;28;20033;-94
2023/09/22 08:27:44;;;;;;;2.40;1.00;;;;;;;22.41;100.00;99053.41;5038706;28;20033;-94
2023/09/22 08:30:13;;;;;;;0.47;0.47;;;;;;;22.87;100.00;99077.47;5057492;28;20041;-93
2023/09/22 08:32:44;;;;;;;0.77;0.73;;;;;;;23.27;100.00;99085.91;5058253;28;20120;-95
2023/09/22 08:35:18;;;;;;;0.80;0.70;;;;;;;23.28;100.00;99087.41;5044465;28;20028;-94
2023/09/22 08:37:44;;;;;;;1.00;0.90;;;;;;;23.19;100.00;99063.16;5056023;28;20036;-93
2023/09/22 08:40:15;;;;;;;0.40;0.40;;;;;;;23.52;100.00;99095.66;5054021;28;20029;-95
2023/09/22 08:42:45;;;;;;;0.47;0.47;;;;;;;23.21;100.00;99058.47;5050131;28;20043;-95
2023/09/22 08:45:11;;;;;;;0.90;0.50;;;;;;;23.16;100.00;99064.28;5069573;28;20029;-95
2023/09/22 08:47:39;;;;;;;6.25;1.35;;;;;;;23.38;100.00;99100.56;5038107;28;20405;-92
2023/09/22 08:50:12;;;;;;;2.30;1.50;;;;;;;23.42;100.00;99098.16;5046520;28;20045;-93
2023/09/22 08:52:39;;;;;;;0.93;0.85;;;;;;;23.44;100.00;99055.19;5059967;28;20052;-92
2023/09/22 08:55:13;;;;;;;1.83;1.55;;;;;;;24.15;100.00;99083.09;5031885;28;20382;-93
2023/09/22 08:57:46;;;;;;;2.88;1.55;;;;;;;24.65;100.00;99078.94;5047870;28;20032;-95
2023/09/22 09:00:19;;;;;;;;;;;;;;;24.99;100.00;99078.78;5057162;28;20087;-94
2023/09/22 09:02:49;;;;;;;4.47;1.13;;;;;;;25.26;100.00;99062.25;5054418;28;20370;-93
2023/09/22 09:05:33;;;;;;;1.55;1.45;;;;;;;25.37;100.00;99081.78;5054431;28;20513;-95
2023/09/22 09:08:13;;;;;;;0.90;0.90;;;;;;;25.37;100.00;99073.25;5063542;28;20083;-94
2023/09/22 09:10:40;;;;;;;0.77;0.63;;;;;;;25.56;100.00;99058.78;5051903;28;20056;-94
2023/09/22 09:13:07;;;;;;;1.40;1.30;;;;;;;25.48;100.00;99050.97;5045695;28;20033;-94
2023/09/22 09:15:50;;;;;;;0.95;0.90;;;;;;;26.11;99.52;99064.72;5039755;28;20124;-96
2023/09/22 09:18:20;;;;;;;1.48;1.17;;;;;;;26.47;94.62;99039.72;5066832;28;20033;-95
2023/09/22 09:21:05;;;;;;;1.20;1.05;;;;;;;26.99;88.75;99060.84;5055885;28;20045;-91
2023/09/22 09:23:34;;;;;;;0.80;0.80;;;;;;;26.69;86.54;99021.09;5054469;28;20036;-94
2023/09/22 09:26:02;;;;;;;0.57;0.57;;;;;;;26.79;87.51;99051.22;5039791;28;20028;-95
2023/09/22 09:28:29;;;;;;;0.70;0.52;;;;;;;26.71;88.84;99018.41;5045979;28;20143;-96
2023/09/22 09:31:02;;;;;;;0.63;0.45;;;;;;;26.68;85.60;99023.19;5054017;28;20040;-96
2023/09/22 09:33:34;;;;;;;0.60;0.60;;;;;;;26.82;83.51;99018.75;5056375;28;20025;-95
2023/09/22 09:36:16;;;;;;;4.53;1.75;;;;;;;27.16;85.63;99069.53;5048304;28;20035;-95
2023/09/22 09:38:47;;;;;;;0.52;0.52;;;;;;;26.99;82.41;99009.63;5045289;28;20039;-95
2023/09/22 09:41:16;;;;;;;1.23;1.13;;;;;;;27.08;81.05;99011.09;5081770;28;20028;-95
2023/09/22 09:43:46;;;;;;;1.05;0.90;;;;;;;27.46;74.76;99057.22;5069368;28;20061;-95
2023/09/22 09:46:16;;;;;;;1.35;1.25;;;;;;;27.24;77.09;99013.31;5042499;28;20041;-95
2023/09/22 09:48:42;;;;;;;2.28;1.20;;;;;;;27.22;74.48;99007.41;5073800;28;20060;-93
2023/09/22 09:51:18;;;;;;;10.27;2.25;;;;;;;27.23;73.41;99005.31;5057326;28;20060;-95
2023/09/22 09:53:52;;;;;;;1.30;1.20;;;;;;;27.54;72.58;99029.47;5056209;28;20048;-95
2023/09/22 09:56:22;;;;;;;1.55;1.38;;;;;;;27.71;70.41;99021.00;5065263;28;20033;-96
2023/09/22 09:58:55;;;;;;;0.98;0.95;;;;;;;27.49;71.30;99010.53;5054583;28;20040;-95
2023/09/22 10:01:27;;;;;;;0.40;0.40;;;;;;;27.43;72.62;98994.97;5075513;28;20025;-95
2023/09/22 10:03:56;;;;;;;8.38;2.00;;;;;;;27.73;71.92;99012.66;5060706;28;20070;-96
2023/09/22 10:06:28;;;;;;;0.63;0.63;;;;;;;27.73;70.58;99004.09;5060670;28;20071;-96
2023/09/22 10:08:56;;;;;;;0.30;0.30;;;;;;;27.68;69.24;99007.94;5058194;28;20064;-96
2023/09/22 10:11:29;;;;;;;0.68;0.68;;;;;;;27.83;66.74;99010.66;5065407;28;20481;-96
2023/09/22 10:15:00;;;;;;;1.92;1.67;;;;;;;28.04;67.74;99003.84;5079711;28;20055;-96
2023/09/22 10:17:31;;;;;;;0.98;0.82;;;;;;;28.10;63.11;99005.16;5062154;28;20033;-96
2023/09/22 10:20:11;;;;;;;0.40;0.40;;;;;;;27.96;64.56;99017.41;5060682;28;20025;-95
2023/09/22 10:22:41;;;;;;;5.60;1.52;;;;;;;28.11;65.96;99020.91;5062064;28;20052;-96
2023/09/22 11:04:50;;;;;;;0.52;0.52;;;;;;;28.68;57.22;99074.19;733653;22;20446;-93
2023/09/22 11:07:37;;;;;;;0.82;0.77;;;;;;;28.91;56.87;99082.56;5007455;28;20021;-94
2023/09/22 11:10:06;;;;;;;0.82;0.82;;;;;;;28.76;58.58;99039.91;5006816;28;20038;-94
2023/09/22 11:12:32;;;;;;;9.45;0.52;;;;;;;28.92;57.76;99047.69;4999031;28;20025;-94
2023/09/22 15:30:29;;;;;;;1.10;1.03;;;;;;;26.41;63.33;98945.31;1033485;23;20344;-95
2023/09/22 15:32:56;;;;;;;0.80;0.80;;;;;;;26.47;65.25;98948.72;4987284;28;20096;-95
2023/09/22 15:35:22;;;;;;;2.15;0.95;;;;;;;26.71;66.40;98979.34;4970398;28;20078;-95
2023/09/22 15:38:37;;;;;;;0.75;0.68;;;;;;;26.53;66.59;98951.38;4971216;28;20078;-94
2023/09/22 15:41:10;;;;;;;2.65;0.80;;;;;;;26.62;67.16;98959.28;4968530;28;20104;-94
2023/09/22 15:43:36;;;;;;;3.40;1.27;;;;;;;26.48;67.52;98955.94;4970135;28;20045;-94
2023/09/22 15:46:05;;;;;;;1.38;1.08;;;;;;;26.70;68.88;98994.13;4986011;28;20026;-95
2023/09/22 15:48:32;;;;;;;1.33;1.20;;;;;;;26.80;69.54;99000.75;4986094;28;20125;-95
2023/09/22 15:50:58;;;;;;;0.30;0.30;;;;;;;26.55;70.09;98960.81;4963023;28;20039;-94
2023/09/22 15:53:28;;;;;;;1.13;1.13;;;;;;;26.52;70.66;98967.66;4979326;28;20022;-95
2023/09/22 15:55:54;;;;;;;0.52;0.50;;;;;;;26.68;72.25;98997.56;4981514;28;20039;-94
2023/09/22 15:58:23;;;;;;;0.85;0.85;;;;;;;26.44;72.29;98972.63;4964869;28;20117;-93
2023/09/22 16:00:49;;;;;;;0.95;0.95;;;;;;;26.62;74.49;99011.22;4965391;28;20093;-94
2023/09/22 16:03:17;;;;;;;0.85;0.85;;;;;;;26.51;75.42;99010.88;4978971;28;20030;-93
2023/09/22 16:05:43;;;;;;;0.85;0.85;;;;;;;26.10;76.67;98964.50;4948451;28;20072;-93
2023/09/22 16:08:12;;;;;;;1.98;1.67;;;;;;;26.24;78.22;98987.81;4960048;28;20042;-93
2023/09/22 16:10:42;;;;;;;1.10;1.00;;;;;;;26.31;79.59;99009.78;4968179;28;20026;-95
2023/09/22 16:13:10;;;;;;;1.48;0.80;;;;;;;26.11;82.29;99002.19;4994893;28;20042;-93
2023/09/22 16:19:24;;;;;;;0.88;0.75;;;;;;;25.64;84.79;98969.41;4990404;28;20045;-95
2023/09/22 16:21:51;;;;;;;1.13;1.02;;;;;;;25.80;85.57;98995.78;4944975;28;20038;-94
2023/09/22 16:24:16;;;;;;;1.55;0.88;;;;;;;25.70;86.53;98997.66;4964719;28;20054;-95
2023/09/22 16:26:42;;;;;;;1.17;1.08;;;;;;;25.58;86.70;98979.47;4972915;28;20030;-93
2023/09/22 16:29:09;;;;;;;1.02;0.55;;;;;;;25.63;86.47;98993.47;4978365;28;20096;-94
2023/09/22 16:31:35;;;;;;;1.33;0.82;;;;;;;25.56;86.83;98991.38;4959539;28;20506;-94
2023/09/22 16:34:02;;;;;;;0.32;0.32;;;;;;;25.54;87.22;99002.56;4971671;28;20039;-94
2023/09/22 16:36:28;;;;;;;0.43;0.43;;;;;;;25.56;88.72;99016.94;4948447;28;20049;-94
2023/09/22 16:38:54;;;;;;;0.63;0.60;;;;;;;25.24;89.48;98965.53;4964203;28;20019;-95
2023/09/22 16:41:20;;;;;;;0.50;0.38;;;;;;;25.36;89.73;98989.41;4971655;28;20466;-95